CW6391 Weather Reports


Display with metric or nautical units.
time (UTC)temp
F
wind
direction
speed
MPH
gust
MPH
rain 1hr
in
rain 24hr
in
rain mn
in
humidity
%
barometer
mb
20240530033647 56 202 2.0 5.0 0.02 0.20 0.00 89 1006.2
20240530033144 56 186 1.0 3.0 0.02 0.19 0.00 89 1006.2
20240530032644 56 153 2.0 4.0 0.02 0.18 0.00 89 1006.6
20240530032147 56 134 2.0 3.0 0.01 0.18 0.00 89 1006.6
20240530031645 56 207 1.0 3.0 0.01 0.18 0.00 89 1006.6
20240530031154 56 157 1.0 4.0 0.01 0.18 0.00 89 1006.6
20240530030651 56 156 0.0 3.0 0.00 0.17 0.00 89 1006.6
20240530030150 56 157 1.0 4.0 0.00 0.17 0.00 90 1006.6
20240530025645 56 173 1.0 4.0 0.00 0.17 0.00 89 1006.6
20240530025145 56 173 2.0 4.0 0.00 0.17 0.00 89 1006.9
20240530024644 56 174 1.0 3.0 0.00 0.17 0.00 89 1006.9
20240530024150 56 118 1.0 2.0 0.00 0.17 0.00 89 1006.9
20240530023651 56 173 1.0 2.0 0.00 0.17 0.00 89 1006.9
20240530023153 56 178 1.0 4.0 0.00 0.17 0.00 89 1006.9
20240530022647 56 219 1.0 3.0 0.00 0.16 0.00 89 1006.9
20240530022144 56 183 1.0 3.0 0.00 0.16 0.00 89 1006.9
20240530021644 56 174 2.0 4.0 0.01 0.16 0.00 89 1006.9
20240530021150 56 172 0.0 2.0 0.02 0.16 0.00 89 1007.2
20240530020644 56 261 0.0 2.0 0.03 0.16 0.00 89 1007.2
20240530020147 56 170 0.0 3.0 0.04 0.16 0.00 89 1007.2
20240530015644 56 204 0.0 3.0 0.06 0.16 0.00 89 1007.2
20240530015144 56 209 0.0 3.0 0.07 0.16 0.00 89 1007.6
20240530014650 56 198 1.0 3.0 0.09 0.16 0.00 89 1007.6
20240530014144 56 191 1.0 3.0 0.11 0.16 0.00 89 1007.6
20240530013644 56 191 1.0 3.0 0.12 0.16 0.00 89 1007.6
20240530013145 56 165 0.0 2.0 0.12 0.16 0.00 89 1007.6
20240530012644 56 236 0.0 1.0 0.12 0.16 0.00 89 1007.6
20240530012147 56 269 0.0 2.0 0.12 0.16 0.00 89 1007.9
20240530011647 56 266 1.0 2.0 0.12 0.15 0.00 89 1007.9
20240530011151 56 316 0.0 2.0 0.11 0.14 0.00 89 1007.9
20240530010647 56 285 1.0 3.0 0.10 0.13 0.00 88 1007.9
20240530010145 56 9 0.0 1.0 0.09 0.12 0.00 88 1007.9
20240530005644 56 195 0.0 2.0 0.07 0.10 0.00 88 1007.9
20240530005147 57 276 1.0 2.0 0.06 0.09 0.00 87 1007.9
20240530004644 57 272 1.0 2.0 0.04 0.07 0.00 87 1008.3
20240530004147 57 292 1.0 3.0 0.02 0.05 0.00 86 1008.3
20240530003645 57 271 2.0 4.0 0.01 0.04 0.00 86 1008.3
20240530003144 57 274 1.0 3.0 0.01 0.04 0.00 85 1008.3
20240530002647 58 247 2.0 4.0 0.00 0.03 0.00 84 1008.7
20240530002144 58 199 2.0 5.0 0.00 0.03 0.00 84 1008.7
20240530001647 58 224 1.0 5.0 0.00 0.03 0.00 85 1008.7
20240530001144 58 257 1.0 4.0 0.00 0.03 0.00 85 1008.7
20240530000647 58 260 0.0 1.0 0.00 0.03 0.00 86 1008.7
20240530000144 58 221 0.0 2.0 0.00 0.02 0.00 86 1008.7
20240529235645 58 210 0.0 2.0 0.00 0.02 0.00 86 1008.7
20240529235144 58 193 0.0 2.0 0.00 0.02 0.00 86 1008.7
20240529234647 58 186 0.0 2.0 0.00 0.02 0.00 86 1008.7
20240529234144 58 202 0.0 2.0 0.00 0.02 0.00 86 1008.7
20240529233651 58 194 2.0 3.0 0.00 0.02 0.00 86 1008.7
20240529233147 58 270 1.0 2.0 0.00 0.02 0.00 86 1009.0
20240529232645 58 157 0.0 2.0 0.00 0.02 0.00 86 1008.7
20240529232144 58 134 1.0 2.0 0.00 0.02 0.00 86 1008.7
20240529231645 58 179 1.0 3.0 0.00 0.02 0.00 86 1008.7
20240529231145 58 167 2.0 3.0 0.00 0.02 0.00 86 1009.0
20240529230650 58 183 1.0 2.0 0.00 0.02 0.00 86 1009.0
20240529230144 58 126 1.0 2.0 0.00 0.02 0.00 86 1009.0
20240529225645 58 160 0.0 2.0 0.00 0.02 0.00 86 1009.0
20240529225147 58 93 1.0 5.0 0.00 0.02 0.00 86 1009.0
20240529224644 58 97 1.0 3.0 0.00 0.02 0.00 85 1009.0
20240529224144 58 116 1.0 3.0 0.00 0.02 0.00 85 1009.0
20240529223651 58 98 1.0 5.0 0.00 0.02 0.00 85 1009.3
20240529223144 58 67 2.0 4.0 0.00 0.02 0.00 84 1009.3
20240529222647 58 75 2.0 4.0 0.00 0.02 0.00 84 1009.3
20240529222147 58 76 2.0 4.0 0.00 0.02 0.00 84 1009.3
20240529221648 58 159 2.0 4.0 0.00 0.02 0.00 83 1009.3
20240529221144 58 104 1.0 4.0 0.00 0.02 0.00 83 1009.3
20240529220650 59 161 1.0 4.0 0.00 0.02 0.00 82 1009.7
20240529220147 59 181 1.0 4.0 0.00 0.02 0.00 81 1009.7
20240529215648 59 189 2.0 6.0 0.00 0.02 0.00 79 1009.7
20240529215147 60 171 2.0 4.0 0.00 0.02 0.00 78 1009.7
20240529214648 60 192 2.0 3.0 0.00 0.02 0.00 76 1009.7
20240529214148 60 207 2.0 4.0 0.00 0.02 0.00 75 1009.7
20240529213644 61 200 2.0 3.0 0.00 0.02 0.00 73 1009.7
20240529213144 61 196 1.0 3.0 0.00 0.02 0.00 71 1009.7
20240529212644 61 130 1.0 2.0 0.00 0.02 0.00 70 1009.7
20240529212147 61 171 0.0 1.0 0.00 0.02 0.00 69 1009.7
20240529211647 61 100 0.0 1.0 0.00 0.02 0.00 69 1009.7
20240529211150 61 153 0.0 2.0 0.00 0.02 0.00 69 1010.0
20240529210644 62 179 1.0 2.0 0.00 0.02 0.00 68 1010.0
20240529210144 62 198 0.0 3.0 0.00 0.02 0.00 67 1010.0
20240529205647 62 195 1.0 2.0 0.00 0.02 0.00 67 1010.0
20240529205144 62 127 1.0 3.0 0.00 0.02 0.00 68 1010.0
20240529204647 62 139 1.0 2.0 0.00 0.02 0.00 68 1010.0
20240529204148 62 139 0.0 2.0 0.00 0.02 0.00 68 1010.0
20240529203644 62 113 1.0 2.0 0.00 0.02 0.00 67 1010.0
20240529203150 62 157 1.0 2.0 0.00 0.02 0.00 67 1010.0
20240529202644 62 204 1.0 2.0 0.00 0.02 0.00 67 1010.4
20240529202148 62 175 1.0 2.0 0.00 0.02 0.00 67 1010.4
20240529201645 62 210 0.0 2.0 0.00 0.02 0.00 66 1010.4
20240529201147 62 263 0.0 2.0 0.00 0.02 0.00 66 1010.4
20240529200654 62 170 0.0 1.0 0.00 0.02 0.00 67 1010.4
20240529200148 62 196 0.0 2.0 0.00 0.02 0.00 66 1010.4
20240529195647 62 222 0.0 2.0 0.00 0.02 0.00 66 1010.4
20240529195148 62 337 0.0 2.0 0.00 0.02 0.00 66 1010.4
20240529194644 62 308 0.0 2.0 0.00 0.02 0.00 66 1010.4
20240529194149 62 302 1.0 2.0 0.00 0.02 0.00 66 1010.4
20240529193650 62 266 0.0 3.0 0.00 0.02 0.00 66 1010.4
20240529193144 62 214 0.0 2.0 0.00 0.02 0.00 65 1010.4
20240529192647 62 210 1.0 3.0 0.00 0.02 0.00 65 1010.4
20240529192147 63 285 0.0 3.0 0.00 0.02 0.00 65 1010.4
20240529191644 63 254 1.0 3.0 0.00 0.02 0.00 65 1010.4
20240529191147 63 244 1.0 2.0 0.00 0.02 0.00 64 1010.4
20240529190648 63 270 1.0 2.0 0.00 0.02 0.00 64 1010.4
20240529190147 63 213 0.0 4.0 0.00 0.02 0.00 64 1010.4
20240529185648 63 269 1.0 4.0 0.00 0.02 0.00 64 1010.4
20240529185144 64 247 1.0 4.0 0.00 0.02 0.00 64 1010.4
20240529184645 64 269 1.0 3.0 0.00 0.02 0.00 63 1010.8
20240529184144 64 268 1.0 3.0 0.00 0.02 0.00 62 1010.8
20240529183644 64 267 1.0 5.0 0.00 0.02 0.00 62 1010.8
20240529183144 64 235 2.0 4.0 0.00 0.02 0.00 61 1010.8
20240529182645 64 313 0.0 3.0 0.00 0.02 0.00 61 1010.8
20240529182147 64 238 1.0 4.0 0.00 0.02 0.00 60 1010.8
20240529181644 64 248 1.0 3.0 0.00 0.02 0.00 60 1010.8
20240529181144 64 263 1.0 5.0 0.00 0.02 0.00 60 1010.8
20240529180645 65 296 1.0 5.0 0.00 0.02 0.00 59 1010.8
20240529180144 65 259 1.0 5.0 0.00 0.02 0.00 58 1010.8
20240529175648 65 266 3.0 6.0 0.00 0.02 0.00 58 1010.8
20240529175144 65 246 0.0 5.0 0.00 0.02 0.00 59 1010.8
20240529174644 65 214 1.0 5.0 0.00 0.02 0.00 59 1010.8
20240529174148 65 171 0.0 4.0 0.00 0.02 0.00 59 1010.8
20240529173651 65 219 0.0 4.0 0.00 0.02 0.00 59 1010.8
20240529173148 65 195 2.0 5.0 0.00 0.02 0.00 58 1010.8
20240529172646 65 240 0.0 3.0 0.00 0.02 0.00 59 1010.8
20240529172147 65 192 3.0 6.0 0.00 0.02 0.00 58 1010.8
20240529171644 65 171 2.0 6.0 0.00 0.02 0.00 58 1010.8
20240529171150 65 221 2.0 5.0 0.00 0.02 0.00 58 1010.8
20240529170647 65 172 3.0 8.0 0.00 0.02 0.00 58 1010.8
20240529170151 65 194 1.0 6.0 0.00 0.02 0.00 58 1010.8
20240529165644 65 206 1.0 6.0 0.00 0.02 0.00 58 1010.8
20240529165144 65 192 3.0 7.0 0.00 0.02 0.00 57 1010.8
20240529164645 65 210 4.0 9.0 0.00 0.02 0.00 56 1010.8
20240529164150 65 186 2.0 5.0 0.00 0.02 0.00 56 1010.8
20240529163648 65 187 1.0 5.0 0.00 0.02 0.00 56 1010.8
20240529163147 66 205 1.0 8.0 0.00 0.02 0.00 56 1010.8
20240529162644 66 194 2.0 7.0 0.00 0.02 0.00 55 1011.1
20240529162153 67 189 1.0 5.0 0.00 0.02 0.00 56 1011.1
20240529161644 66 154 2.0 5.0 0.00 0.02 0.00 56 1011.1
20240529161145 66 202 3.0 7.0 0.00 0.02 0.00 56 1011.1
20240529160647 65 233 1.0 5.0 0.00 0.02 0.00 59 1011.4
20240529160144 65 209 3.0 8.0 0.00 0.02 0.00 59 1011.4
20240529155645 64 193 3.0 7.0 0.00 0.02 0.00 60 1011.4
20240529155147 64 203 1.0 7.0 0.00 0.02 0.00 61 1011.4
20240529154647 64 168 3.0 7.0 0.00 0.02 0.00 61 1011.4
20240529154145 64 209 2.0 7.0 0.00 0.02 0.00 62 1011.4
20240529153653 64 196 1.0 5.0 0.00 0.02 0.00 63 1011.4
20240529153148 64 161 2.0 6.0 0.00 0.02 0.00 63 1011.8
20240529152644 65 301 1.0 3.0 0.00 0.02 0.00 63 1011.8
20240529152154 65 252 1.0 3.0 0.00 0.02 0.00 62 1011.8
20240529151648 64 285 1.0 3.0 0.00 0.02 0.00 63 1011.8
20240529151147 64 216 1.0 7.0 0.00 0.02 0.00 63 1012.1
20240529150650 65 240 1.0 3.0 0.00 0.02 0.00 62 1012.1
20240529150147 64 199 1.0 6.0 0.00 0.02 0.00 63 1011.8
20240529145651 64 193 1.0 4.0 0.00 0.02 0.00 64 1011.8
20240529145147 64 134 1.0 5.0 0.00 0.02 0.00 65 1012.1
20240529144644 64 267 1.0 3.0 0.00 0.02 0.00 65 1012.1
20240529144153 64 222 1.0 4.0 0.00 0.02 0.00 66 1012.1
20240529143650 64 246 1.0 3.0 0.00 0.02 0.00 65 1012.1
20240529143153 64 247 1.0 4.0 0.00 0.02 0.00 65 1012.1
20240529142647 64 284 1.0 2.0 0.00 0.02 0.00 66 1012.1
20240529142147 64 267 1.0 5.0 0.00 0.02 0.00 66 1012.1
20240529141647 64 282 1.0 3.0 0.00 0.02 0.00 66 1012.5
20240529141144 64 266 0.0 3.0 0.00 0.02 0.00 67 1012.1
20240529140645 63 240 2.0 4.0 0.00 0.02 0.00 66 1012.5
20240529140145 63 269 1.0 3.0 0.00 0.02 0.00 67 1012.5
20240529135644 63 278 1.0 6.0 0.00 0.02 0.00 67 1012.5
20240529135147 63 282 2.0 7.0 0.00 0.02 0.00 67 1012.5
20240529134647 63 272 4.0 9.0 0.00 0.02 0.00 66 1012.9
20240529134144 63 272 3.0 10.0 0.00 0.02 0.00 65 1012.9
20240529133647 64 278 3.0 8.0 0.01 0.02 0.00 65 1012.9
20240529133148 64 226 2.0 10.0 0.01 0.02 0.00 64 1012.9
20240529132644 65 222 2.0 5.0 0.01 0.02 0.00 64 1012.9
20240529132148 65 245 1.0 5.0 0.01 0.02 0.00 63 1012.9
20240529131645 65 255 3.0 7.0 0.01 0.02 0.00 62 1012.9
20240529131147 64 250 1.0 6.0 0.01 0.02 0.00 67 1012.9
20240529130644 64 222 1.0 7.0 0.01 0.02 0.00 70 1012.9
20240529130147 64 279 2.0 5.0 0.01 0.02 0.00 66 1012.9
20240529125644 64 249 1.0 4.0 0.01 0.02 0.00 69 1012.9
20240529125144 64 262 2.0 5.0 0.01 0.02 0.00 66 1012.9
20240529124645 64 242 1.0 8.0 0.01 0.02 0.00 63 1013.2
20240529124145 65 266 2.0 8.0 0.01 0.01 0.00 58 1013.2
20240529123647 67 266 2.0 6.0 0.00 0.00 0.00 51 1013.2
20240529123148 67 220 1.0 6.0 0.00 0.00 0.00 47 1012.9
20240529122644 67 235 2.0 7.0 0.00 0.00 0.00 45 1012.9
20240529122144 68 179 1.0 3.0 0.00 0.00 0.00 46 1012.9
20240529121653 67 190 1.0 6.0 0.00 0.00 0.00 47 1012.9
20240529121145 67 227 1.0 7.0 0.00 0.00 0.00 46 1012.9
20240529120647 68 188 4.0 10.0 0.00 0.00 0.00 45 1012.9
20240529120150 68 203 1.0 5.0 0.00 0.00 0.00 45 1012.9
20240529115650 69 239 2.0 6.0 0.00 0.00 0.00 44 1012.9
20240529115147 69 248 2.0 5.0 0.00 0.00 0.00 44 1012.9
20240529114644 69 167 2.0 6.0 0.00 0.00 0.00 43 1012.9
20240529114148 69 248 1.0 4.0 0.00 0.00 0.00 43 1012.9
20240529113650 69 189 1.0 7.0 0.00 0.00 0.00 44 1013.2
20240529113147 69 198 6.0 9.0 0.00 0.00 0.00 43 1013.2
20240529112650 69 189 3.0 9.0 0.00 0.00 0.00 44 1013.2
20240529112148 70 218 2.0 5.0 0.00 0.00 0.00 43 1013.2
20240529111650 69 240 2.0 5.0 0.00 0.00 0.00 44 1013.2
20240529111147 68 187 4.0 10.0 0.00 0.00 0.00 45 1013.2
20240529110644 69 188 2.0 7.0 0.00 0.00 0.00 45 1013.2
20240529110148 68 180 2.0 8.0 0.00 0.00 0.00 46 1013.2
20240529105650 68 199 5.0 9.0 0.00 0.00 0.00 45 1013.2
20240529105145 68 195 5.0 9.0 0.00 0.00 0.00 45 1013.2
20240529104647 67 194 4.0 10.0 0.00 0.00 0.00 45 1013.5
20240529104147 68 167 4.0 9.0 0.00 0.00 0.00 45 1013.5
20240529103647 68 180 4.0 7.0 0.00 0.00 0.00 44 1013.5
20240529103148 68 190 2.0 10.0 0.00 0.00 0.00 44 1013.5
20240529102650 68 180 5.0 13.0 0.00 0.00 0.00 44 1013.5
20240529102145 68 148 1.0 9.0 0.00 0.00 0.00 46 1013.5
20240529101644 69 224 2.0 7.0 0.00 0.00 0.00 44 1013.9
20240529101144 68 326 1.0 6.0 0.00 0.00 0.00 44 1013.9
20240529100644 67 189 2.0 12.0 0.00 0.00 0.00 45 1013.9
20240529100145 67 177 7.0 12.0 0.00 0.00 0.00 43 1013.9
20240529095647 68 147 5.0 14.0 0.00 0.00 0.00 45 1013.9
20240529095147 69 186 3.0 8.0 0.00 0.00 0.00 44 1013.9
20240529094644 67 165 3.0 9.0 0.00 0.00 0.00 48 1013.9
20240529094144 67 188 4.0 13.0 0.00 0.00 0.00 48 1013.9
20240529093645 67 201 7.0 12.0 0.00 0.00 0.00 49 1013.9
20240529093144 67 165 4.0 12.0 0.00 0.00 0.00 48 1013.9
20240529092644 68 195 5.0 9.0 0.00 0.00 0.00 46 1014.2
20240529092147 67 169 2.0 11.0 0.00 0.00 0.00 47 1014.2
20240529091648 67 166 7.0 13.0 0.00 0.00 0.00 47 1014.2
20240529091147 67 159 5.0 11.0 0.00 0.00 0.00 48 1014.2
20240529090644 67 172 2.0 11.0 0.00 0.00 0.00 50 1014.2
20240529090144 66 118 2.0 7.0 0.00 0.00 0.00 55 1014.2
20240529085647 66 105 1.0 9.0 0.00 0.00 0.00 53 1014.2
20240529085147 66 137 2.0 8.0 0.00 0.00 0.00 55 1014.2
20240529084644 65 102 4.0 7.0 0.00 0.00 0.00 56 1014.2
20240529084145 64 204 3.0 7.0 0.00 0.00 0.00 57 1014.6
20240529083651 63 159 1.0 7.0 0.00 0.00 0.00 61 1014.6
20240529083150 63 157 2.0 7.0 0.00 0.00 0.00 61 1014.6
20240529082647 63 173 3.0 11.0 0.00 0.00 0.00 61 1014.6
20240529082147 62 191 4.0 8.0 0.00 0.00 0.00 61 1014.6
20240529081653 62 151 3.0 9.0 0.00 0.00 0.00 62 1014.6
20240529081150 62 169 2.0 6.0 0.00 0.00 0.00 64 1014.6
20240529080644 61 162 2.0 5.0 0.00 0.00 0.00 65 1014.6
20240529080147 61 161 2.0 5.0 0.00 0.00 0.00 65 1014.6
20240529075648 60 153 2.0 8.0 0.00 0.00 0.00 65 1014.6
20240529075147 60 123 3.0 7.0 0.00 0.00 0.00 66 1014.6
20240529074644 60 131 2.0 6.0 0.00 0.00 0.00 67 1014.6
20240529074147 59 128 1.0 7.0 0.00 0.00 0.00 68 1015.0
20240529073644 59 83 3.0 7.0 0.00 0.00 0.00 69 1015.0
20240529073144 58 121 4.0 7.0 0.00 0.00 0.00 71 1015.0
20240529072647 57 75 3.0 6.0 0.00 0.00 0.00 72 1015.0
20240529072144 57 109 2.0 4.0 0.00 0.00 0.00 74 1015.0
20240529071645 56 109 2.0 5.0 0.00 0.00 0.00 75 1015.0
20240529071150 56 118 2.0 5.0 0.00 0.00 0.00 76 1015.0
20240529070647 55 80 4.0 7.0 0.00 0.00 0.00 76 1015.0
20240529070148 55 137 1.0 5.0 0.00 0.00 0.00 77 1015.0
20240529065645 55 153 3.0 9.0 0.00 0.00 0.00 77 1015.0
20240529065150 54 161 2.0 10.0 0.00 0.00 0.00 77 1015.0
20240529064644 55 167 2.0 8.0 0.00 0.00 0.00 77 1015.3
20240529064145 55 151 2.0 9.0 0.00 0.00 0.00 75 1015.3
20240529063644 55 147 4.0 8.0 0.00 0.00 0.00 71 1015.3
20240529063150 55 179 3.0 8.0 0.00 0.00 0.00 71 1015.3
20240529062647 55 170 4.0 11.0 0.00 0.00 0.00 70 1015.3
20240529062145 55 166 6.0 9.0 0.00 0.00 0.00 69 1015.6
20240529061645 55 167 2.0 7.0 0.00 0.00 0.00 69 1015.6
20240529061154 55 169 1.0 4.0 0.00 0.00 0.00 69 1015.6
20240529060647 55 163 2.0 4.0 0.00 0.00 0.00 70 1015.6
20240529060153 54 178 1.0 5.0 0.00 0.00 0.00 70 1015.6
20240529055644 54 145 2.0 3.0 0.00 0.00 0.00 70 1015.6
20240529055144 54 188 2.0 3.0 0.00 0.00 0.00 70 1015.6
20240529054645 54 173 0.0 3.0 0.00 0.00 0.00 70 1015.6
20240529054147 54 214 0.0 2.0 0.00 0.00 0.00 71 1015.6
20240529053656 54 143 1.0 3.0 0.00 0.00 0.00 71 1015.6
20240529053153 53 163 1.0 5.0 0.00 0.00 0.00 71 1015.6
20240529052647 53 93 1.0 4.0 0.00 0.00 0.00 71 1015.6
20240529052144 53 206 1.0 4.0 0.00 0.00 0.00 72 1015.6
20240529051653 53 202 1.0 3.0 0.00 0.00 0.00 73 1015.6
20240529051147 53 192 2.0 3.0 0.00 0.00 0.00 73 1015.6
20240529050647 52 154 2.0 4.0 0.00 0.00 0.00 74 1015.6
20240529050147 52 175 2.0 4.0 0.00 0.00 0.00 74 1015.6
20240529045645 52 196 2.0 4.0 0.00 0.00 0.00 74 1016.0
20240529045145 52 174 1.0 3.0 0.00 0.00 0.00 74 1016.0
20240529044644 52 147 2.0 3.0 0.00 0.00 0.00 74 1016.0
20240529044144 52 172 2.0 3.0 0.00 0.00 0.00 74 1016.0
20240529043644 52 166 1.0 3.0 0.00 0.00 0.00 74 1016.0
20240529043144 52 175 1.0 4.0 0.00 0.00 0.00 74 1016.0
20240529042651 52 159 2.0 4.0 0.00 0.00 0.00 74 1016.0
20240529042147 52 193 1.0 3.0 0.00 0.00 0.00 74 1016.0
20240529041645 52 203 1.0 3.0 0.00 0.00 0.00 75 1016.0
20240529041147 51 159 2.0 3.0 0.00 0.00 0.00 75 1016.0
20240529040644 51 180 2.0 3.0 0.00 0.00 0.00 76 1016.0
20240529040150 51 161 2.0 4.0 0.00 0.00 0.00 76 1016.0
20240529035644 51 203 2.0 3.0 0.00 0.00 0.00 76 1016.0
20240529035145 51 151 2.0 3.0 0.00 0.00 0.00 76 1016.3
20240529035026 51 211 2.0 3.0 0.00 0.00 0.00 76 1016.3
20240529034148 51 168 1.0 3.0 0.00 0.00 0.00 76 1016.3